createdAt,value
2023-08-14T00:02:33.076Z,18.34
2023-08-14T00:07:35.048Z,18.44
2023-08-14T00:12:36.961Z,18.48
2023-08-14T00:17:38.613Z,18.40
2023-08-14T00:22:40.502Z,18.44
2023-08-14T00:27:42.246Z,18.38
2023-08-14T00:32:44.330Z,18.39
2023-08-14T00:37:47.984Z,18.44
2023-08-14T00:42:49.882Z,18.42
2023-08-14T00:47:51.596Z,18.34
2023-08-14T00:52:55.413Z,18.34
2023-08-14T00:57:57.407Z,18.38
2023-08-14T01:02:59.426Z,18.31
2023-08-14T01:08:01.393Z,18.33
2023-08-14T01:13:27.449Z,18.28
2023-08-14T01:18:29.912Z,18.33
2023-08-14T01:24:02.972Z,18.38
2023-08-14T01:29:04.912Z,18.36
2023-08-14T01:34:07.106Z,18.25
2023-08-14T01:39:10.316Z,18.31
2023-08-14T01:44:13.237Z,18.34
2023-08-14T01:49:15.840Z,18.34
2023-08-14T01:54:17.812Z,18.41
2023-08-14T01:59:19.653Z,18.40
2023-08-14T02:04:21.419Z,18.33
2023-08-14T02:09:23.457Z,18.36
2023-08-14T02:14:25.119Z,18.33
2023-08-14T02:19:27.000Z,18.22
2023-08-14T02:24:28.640Z,18.04
2023-08-14T02:29:30.521Z,18.09
2023-08-14T02:34:45.352Z,18.05
2023-08-14T02:39:47.268Z,18.11
2023-08-14T02:44:48.892Z,17.95
2023-08-14T02:49:50.849Z,17.88
2023-08-14T02:54:52.767Z,17.79
2023-08-14T02:59:54.487Z,17.74
2023-08-14T03:04:56.528Z,17.89
2023-08-14T03:09:58.334Z,17.95
2023-08-14T03:15:00.282Z,18.01
2023-08-14T03:20:02.353Z,18.08
2023-08-14T03:25:05.541Z,18.09
2023-08-14T03:30:08.142Z,18.09
2023-08-14T03:35:10.168Z,18.09
2023-08-14T03:40:12.531Z,18.13
2023-08-14T03:45:14.576Z,18.14
2023-08-14T03:50:16.691Z,18.19
2023-08-14T03:55:18.703Z,18.11
2023-08-14T04:00:21.850Z,18.16
2023-08-14T04:05:23.614Z,18.10
2023-08-14T04:10:25.584Z,18.23
2023-08-14T04:15:27.316Z,18.26
2023-08-14T04:20:29.189Z,18.28
2023-08-14T04:25:30.928Z,18.20
2023-08-14T04:30:32.943Z,18.23
2023-08-14T04:35:34.657Z,18.17
2023-08-14T04:40:36.525Z,18.27
2023-08-14T04:45:38.293Z,18.23
2023-08-14T04:50:40.204Z,18.29
2023-08-14T04:55:41.907Z,18.28
2023-08-14T05:00:43.960Z,18.37
2023-08-14T05:05:51.479Z,18.43
2023-08-14T05:10:53.777Z,18.47
2023-08-14T05:16:07.163Z,18.54
2023-08-14T05:21:10.725Z,18.47
2023-08-14T05:26:12.604Z,18.38
2023-08-14T05:31:14.379Z,18.16
2023-08-14T05:36:16.313Z,18.20
2023-08-14T05:41:18.050Z,18.17
2023-08-14T05:46:19.940Z,18.27
2023-08-14T05:51:21.739Z,18.34
2023-08-14T05:56:23.757Z,18.43
2023-08-14T06:01:25.800Z,18.54
2023-08-14T06:06:27.782Z,18.59
2023-08-14T06:11:29.438Z,18.83
2023-08-14T06:16:31.505Z,19.13
2023-08-14T06:21:33.492Z,19.57
2023-08-14T06:26:35.208Z,19.85
2023-08-14T06:31:37.184Z,22.58
2023-08-14T06:36:39.140Z,22.43
2023-08-14T06:41:41.098Z,22.29
2023-08-14T06:46:43.253Z,21.99
2023-08-14T06:51:45.342Z,21.66
2023-08-14T06:56:47.332Z,21.36
2023-08-14T07:01:49.235Z,20.83
2023-08-14T07:06:51.232Z,20.60
2023-08-14T07:11:53.366Z,20.26
2023-08-14T07:16:55.314Z,20.35
2023-08-14T07:21:57.220Z,20.34
2023-08-14T07:27:00.341Z,21.03
2023-08-14T07:32:02.362Z,28.24
2023-08-14T07:37:04.360Z,27.76
2023-08-14T07:42:06.343Z,24.33
2023-08-14T07:47:08.295Z,22.86
2023-08-14T07:52:10.255Z,22.34
2023-08-14T07:57:12.178Z,22.02
2023-08-14T08:02:14.164Z,21.69
2023-08-14T08:07:16.723Z,21.30
2023-08-14T08:12:19.224Z,21.30
2023-08-14T08:17:21.478Z,21.70
2023-08-14T08:22:23.430Z,21.78
2023-08-14T08:27:25.364Z,21.97
2023-08-14T08:32:29.991Z,22.26
2023-08-14T08:37:33.374Z,22.08
2023-08-14T08:42:35.362Z,21.58
2023-08-14T08:47:39.453Z,21.42
2023-08-14T08:52:41.411Z,21.55
2023-08-14T08:57:43.345Z,21.40
2023-08-14T09:02:47.421Z,21.22
2023-08-14T09:07:49.551Z,21.01
2023-08-14T09:12:51.631Z,21.04
2023-08-14T09:17:53.749Z,21.23
2023-08-14T09:22:59.550Z,21.93
2023-08-14T09:28:01.436Z,21.97
2023-08-14T09:33:03.811Z,22.12
2023-08-14T09:38:06.134Z,23.08
2023-08-14T09:43:08.079Z,23.43
2023-08-14T09:48:10.194Z,23.58
2023-08-14T09:53:12.210Z,23.77
2023-08-14T09:58:14.145Z,22.95
2023-08-14T10:03:16.152Z,22.05
2023-08-14T10:08:18.207Z,21.62
2023-08-14T10:13:20.198Z,21.73
2023-08-14T10:18:23.820Z,22.17
2023-08-14T10:23:25.754Z,21.95
2023-08-14T10:28:27.671Z,21.92
2023-08-14T10:33:29.596Z,22.10
2023-08-14T10:38:44.730Z,22.24
2023-08-14T10:43:50.265Z,21.91
2023-08-14T10:48:52.877Z,21.53
2023-08-14T10:54:03.382Z,21.67
2023-08-14T10:59:05.338Z,22.23
2023-08-14T11:04:07.431Z,23.20
2023-08-14T11:09:09.429Z,23.93
2023-08-14T11:14:11.443Z,24.16
2023-08-14T11:19:13.403Z,24.09
2023-08-14T11:24:15.334Z,24.03
2023-08-14T11:29:17.217Z,23.82
2023-08-14T11:34:20.134Z,23.51
2023-08-14T11:39:22.065Z,22.84
2023-08-14T11:44:23.971Z,22.43
2023-08-14T11:49:25.935Z,22.76
2023-08-14T11:54:27.856Z,22.57
2023-08-14T11:59:29.823Z,22.55
2023-08-14T12:04:31.721Z,22.64
2023-08-14T12:09:33.683Z,22.96
2023-08-14T12:14:54.140Z,22.91
2023-08-14T12:19:56.713Z,23.13
2023-08-14T12:24:58.671Z,23.20
2023-08-14T12:30:00.627Z,23.08
2023-08-14T12:35:02.645Z,23.29
2023-08-14T12:40:06.075Z,23.13
2023-08-14T12:45:08.324Z,23.03
2023-08-14T12:50:10.508Z,22.74
2023-08-14T12:55:18.448Z,22.33
2023-08-14T13:00:21.163Z,22.65
2023-08-14T13:05:23.184Z,22.86
2023-08-14T13:10:25.117Z,22.98
2023-08-14T13:15:27.080Z,22.89
2023-08-14T13:20:29.087Z,22.84
2023-08-14T13:25:31.101Z,23.05
2023-08-14T13:30:33.081Z,23.13
2023-08-14T13:35:35.072Z,23.13
2023-08-14T13:40:37.064Z,23.16
2023-08-14T13:45:38.958Z,23.12
2023-08-14T13:50:42.911Z,23.27
2023-08-14T13:55:45.000Z,23.43
2023-08-14T14:00:46.902Z,23.57
2023-08-14T14:05:48.860Z,23.35
2023-08-14T14:10:50.766Z,23.47
2023-08-14T14:15:52.661Z,23.50
2023-08-14T14:20:54.512Z,23.47
2023-08-14T14:25:56.432Z,23.36
2023-08-14T14:30:58.405Z,23.44
2023-08-14T14:36:00.301Z,23.40
2023-08-14T14:41:02.186Z,23.18
2023-08-14T14:46:05.393Z,23.13
2023-08-14T14:51:08.610Z,23.08
2023-08-14T14:56:10.460Z,22.95
2023-08-14T15:01:12.565Z,22.64
2023-08-14T15:06:14.489Z,22.56
2023-08-14T15:11:16.430Z,22.65
2023-08-14T15:16:18.377Z,22.67
2023-08-14T15:21:20.332Z,22.77
2023-08-14T15:26:22.215Z,22.93
2023-08-14T15:31:24.175Z,23.04
2023-08-14T15:36:26.080Z,22.86
2023-08-14T15:41:27.966Z,22.72
2023-08-14T15:46:29.881Z,22.64
2023-08-14T15:51:31.752Z,22.55
2023-08-14T15:56:33.734Z,22.58
2023-08-14T16:01:35.638Z,22.73
2023-08-14T16:06:37.529Z,22.68
2023-08-14T16:11:39.444Z,22.51
2023-08-14T16:16:41.383Z,22.22
2023-08-14T16:21:43.355Z,22.09
2023-08-14T16:26:45.259Z,21.89
2023-08-14T16:31:47.224Z,21.74
2023-08-14T16:36:49.137Z,21.67
2023-08-14T16:41:50.951Z,21.58
2023-08-14T16:46:52.855Z,21.45
2023-08-14T16:51:54.855Z,21.36
2023-08-14T16:56:56.734Z,21.27
2023-08-14T17:01:58.616Z,21.21
2023-08-14T17:07:00.554Z,21.14
2023-08-14T17:12:02.417Z,21.01
2023-08-14T17:17:04.433Z,20.96
2023-08-14T17:22:06.328Z,20.87
2023-08-14T17:27:08.285Z,20.82
2023-08-14T17:32:11.636Z,20.77
2023-08-14T17:37:13.590Z,20.67
2023-08-14T17:42:15.581Z,20.58
2023-08-14T17:47:18.031Z,20.51
2023-08-14T17:52:20.183Z,20.45
2023-08-14T17:57:22.761Z,20.41
2023-08-14T18:02:25.081Z,20.39
2023-08-14T18:07:27.062Z,20.35
2023-08-14T18:12:28.969Z,20.30
2023-08-14T18:17:30.973Z,20.26
2023-08-14T18:22:33.115Z,20.25
2023-08-14T18:27:35.016Z,20.22
2023-08-14T18:32:36.914Z,20.19
2023-08-14T18:37:38.819Z,20.16
2023-08-14T18:42:40.776Z,20.15
2023-08-14T18:47:42.693Z,20.15
2023-08-14T18:52:44.706Z,20.18
2023-08-14T18:57:46.678Z,20.19
2023-08-14T19:02:48.748Z,20.20
2023-08-14T19:07:50.686Z,20.19
2023-08-14T19:12:52.428Z,20.10
2023-08-14T19:17:54.280Z,20.12
2023-08-14T19:22:56.168Z,20.11
2023-08-14T19:28:00.186Z,20.12
2023-08-14T19:33:02.379Z,20.10
2023-08-14T19:38:04.635Z,20.09
2023-08-14T19:43:06.511Z,20.09
2023-08-14T19:48:08.417Z,20.05
2023-08-14T19:53:10.277Z,20.03
2023-08-14T19:58:12.226Z,20.02
2023-08-14T20:03:14.196Z,19.99
2023-08-14T20:08:16.377Z,19.95
2023-08-14T20:13:18.417Z,19.91
2023-08-14T20:18:20.308Z,19.85
2023-08-14T20:23:22.213Z,19.79
2023-08-14T20:28:24.053Z,19.74
2023-08-14T20:33:25.714Z,19.59
2023-08-14T20:38:27.656Z,19.56
2023-08-14T20:43:29.988Z,19.50
2023-08-14T20:48:31.882Z,19.44
2023-08-14T20:53:33.553Z,19.32
2023-08-14T20:58:35.519Z,19.33
2023-08-14T21:03:37.441Z,19.28
2023-08-14T21:08:39.487Z,19.27
2023-08-14T21:13:41.313Z,19.26
2023-08-14T21:18:43.972Z,19.13
2023-08-14T21:23:45.780Z,19.13
2023-08-14T21:28:47.483Z,19.03
2023-08-14T21:33:49.366Z,19.05
2023-08-14T21:38:50.955Z,18.96
2023-08-14T21:43:52.818Z,18.99
2023-08-14T21:48:54.517Z,18.88
2023-08-14T21:53:56.386Z,18.89
2023-08-14T21:58:58.069Z,18.79
2023-08-14T22:03:59.999Z,18.78
2023-08-14T22:09:01.935Z,18.72
2023-08-14T22:14:03.674Z,18.59
2023-08-14T22:19:05.680Z,18.62
2023-08-14T22:24:07.527Z,18.51
2023-08-14T22:29:09.404Z,18.57
2023-08-14T22:34:11.010Z,18.48
2023-08-14T22:39:12.918Z,18.50
2023-08-14T22:44:14.711Z,18.42
2023-08-14T22:49:16.523Z,18.43
2023-08-14T22:54:18.407Z,18.43
2023-08-14T22:59:20.042Z,18.35
2023-08-14T23:04:21.933Z,18.36
2023-08-14T23:09:23.606Z,18.28
2023-08-14T23:14:25.546Z,18.30
2023-08-14T23:19:27.304Z,18.24
2023-08-14T23:24:30.305Z,18.15
2023-08-14T23:29:32.261Z,18.19
2023-08-14T23:34:33.907Z,18.08
2023-08-14T23:39:35.762Z,18.10
2023-08-14T23:44:37.852Z,18.01
2023-08-14T23:49:39.823Z,18.05
2023-08-14T23:54:42.074Z,17.97
2023-08-14T23:59:43.898Z,17.96
